Time;durP1;ratioP1;P1;durP2;ratioP2;P2;SDS_P1;SDS_P2;PMS_P1;PMS_P2;Temp;Humidity;BMP_temperature;BMP_pressure;BME280_temperature;BME280_humidity;BME280_pressure;Samples;Min_cycle;Max_cycle;Signal;HPM_P1;HPM_P2
2021/07/24 00:00:58;;;;;;;59.20;3.43;;;18.40;1.00;;;;;;5054376;28;20538;-71
2021/07/24 00:03:28;;;;;;;58.50;2.83;;;18.40;1.00;;;;;;5054471;28;20459;-72
2021/07/24 00:05:55;;;;;;;59.00;3.13;;;18.40;1.00;;;;;;5054245;28;20476;-71
2021/07/24 00:08:22;;;;;;;59.20;3.10;;;18.30;1.00;;;;;;5071782;28;20454;-71
2021/07/24 00:10:49;;;;;;;58.37;2.90;;;18.30;1.00;;;;;;5074151;28;20457;-71
2021/07/24 00:13:16;;;;;;;58.87;3.27;;;18.30;1.00;;;;;;5074336;28;20454;-71
2021/07/24 00:15:43;;;;;;;59.80;3.60;;;18.20;1.00;;;;;;5074329;28;20470;-71
2021/07/24 00:18:10;;;;;;;58.90;3.43;;;18.10;1.00;;;;;;5074202;28;20461;-71
2021/07/24 00:20:38;;;;;;;62.87;5.03;;;18.00;1.00;;;;;;5074246;28;20478;-71
2021/07/24 00:23:08;;;;;;;59.40;3.43;;;18.00;1.00;;;;;;5073796;28;20931;-72
2021/07/24 00:25:36;;;;;;;60.20;3.33;;;18.00;1.00;;;;;;5073966;28;20475;-71
2021/07/24 00:28:03;;;;;;;59.53;3.53;;;18.00;1.00;;;;;;5074220;28;20545;-71
2021/07/24 00:30:30;;;;;;;58.43;3.00;;;18.00;1.00;;;;;;5074238;28;20457;-71
2021/07/24 00:32:57;;;;;;;58.53;3.33;;;18.00;1.00;;;;;;5073799;28;20456;-72
2021/07/24 00:35:23;;;;;;;58.50;2.83;;;18.00;1.00;;;;;;5073844;28;21008;-72
2021/07/24 00:37:52;;;;;;;58.40;3.13;;;17.90;1.00;;;;;;5072737;28;20542;-72
2021/07/24 00:40:23;;;;;;;58.87;3.10;;;17.90;1.00;;;;;;5073658;28;20465;-72
2021/07/24 00:42:51;;;;;;;59.47;3.97;;;17.90;1.00;;;;;;5073575;28;20573;-71
2021/07/24 00:45:20;;;;;;;58.47;3.43;;;17.90;1.00;;;;;;5074170;28;20474;-71
2021/07/24 00:47:49;;;;;;;60.43;3.80;;;17.80;1.00;;;;;;5074249;28;20450;-72
2021/07/24 00:50:17;;;;;;;58.53;3.13;;;17.70;1.00;;;;;;5073579;28;20917;-72
2021/07/24 00:52:44;;;;;;;59.40;3.10;;;17.70;1.00;;;;;;5073206;28;20524;-71
2021/07/24 00:55:14;;;;;;;58.57;2.90;;;17.70;1.00;;;;;;5073737;28;20553;-71
2021/07/24 00:57:42;;;;;;;58.30;3.10;;;17.70;1.00;;;;;;5073951;28;20890;-71
2021/07/24 01:00:10;;;;;;;58.93;3.87;;;17.70;1.00;;;;;;5074036;28;20939;-70
2021/07/24 01:02:38;;;;;;;59.30;3.40;;;17.70;1.00;;;;;;5073029;28;20897;-71
2021/07/24 01:05:07;;;;;;;58.50;3.00;;;17.70;1.00;;;;;;5073063;28;20474;-71
2021/07/24 01:07:35;;;;;;;58.80;3.00;;;17.70;1.00;;;;;;5073403;28;20538;-71
2021/07/24 01:10:02;;;;;;;59.20;2.70;;;17.70;1.00;;;;;;5072102;28;20451;-71
2021/07/24 01:12:32;;;;;;;59.60;4.37;;;17.60;1.00;;;;;;5072836;28;20541;-70
2021/07/24 01:14:59;;;;;;;59.20;3.80;;;17.60;1.00;;;;;;5073174;28;20494;-71
2021/07/24 01:17:26;;;;;;;58.53;3.13;;;17.60;1.00;;;;;;5073030;28;20457;-71
2021/07/24 01:19:53;;;;;;;59.00;3.17;;;17.60;1.00;;;;;;5073056;28;20492;-71
2021/07/24 01:22:21;;;;;;;58.77;3.17;;;17.50;1.00;;;;;;5072603;28;20569;-71
2021/07/24 01:24:48;;;;;;;59.50;5.27;;;17.50;1.00;;;;;;5072994;28;20554;-71
2021/07/24 01:27:15;;;;;;;58.80;3.37;;;17.40;1.00;;;;;;5072968;28;20450;-71
2021/07/24 01:29:42;;;;;;;59.03;3.23;;;17.40;1.00;;;;;;5072161;28;20545;-71
2021/07/24 01:32:09;;;;;;;59.13;3.40;;;17.30;1.00;;;;;;5072340;28;20549;-71
2021/07/24 01:34:36;;;;;;;59.93;3.50;;;17.30;1.00;;;;;;5072869;28;20470;-71
2021/07/24 01:37:03;;;;;;;58.93;3.23;;;17.30;1.00;;;;;;5072644;28;20461;-71
2021/07/24 01:39:31;;;;;;;61.20;4.50;;;17.30;1.00;;;;;;5072738;28;20536;-71
2021/07/24 01:41:58;;;;;;;63.07;3.80;;;17.30;1.00;;;;;;5052893;28;20494;-71
2021/07/24 01:44:25;;;;;;;58.80;3.03;;;17.30;1.00;;;;;;5052537;28;20564;-72
2021/07/24 01:46:52;;;;;;;59.77;3.77;;;17.20;1.00;;;;;;5052307;28;20447;-71
2021/07/24 01:55:02;;;;;;;59.20;3.50;;;17.20;1.00;;;;;;5052073;28;21119;-72
2021/07/24 01:57:32;;;;;;;59.57;3.83;;;17.20;1.00;;;;;;5052543;28;20555;-72
2021/07/24 02:00:07;;;;;;;59.67;3.67;;;17.20;1.00;;;;;;5052525;28;20451;-71
2021/07/24 02:02:36;;;;;;;59.30;3.63;;;17.20;1.00;;;;;;5051988;28;20493;-72
2021/07/24 02:05:04;;;;;;;60.37;3.03;;;17.20;1.00;;;;;;5052250;28;20887;-72
2021/07/24 02:07:37;;;;;;;60.97;3.17;;;17.20;1.00;;;;;;5051985;28;20458;-72
2021/07/24 02:10:06;;;;;;;58.77;2.97;;;17.20;1.00;;;;;;5052413;28;20457;-72
2021/07/24 02:12:34;;;;;;;58.60;2.80;;;17.20;1.00;;;;;;5050933;28;20539;-71
2021/07/24 02:15:01;;;;;;;58.87;3.00;;;17.20;1.00;;;;;;5068744;28;20475;-72
2021/07/24 02:17:31;;;;;;;59.27;3.57;;;17.20;1.00;;;;;;5072103;28;20907;-72
2021/07/24 02:19:59;;;;;;;60.80;4.40;;;17.20;1.00;;;;;;5071775;28;20446;-72
2021/07/24 02:22:26;;;;;;;58.47;3.50;;;17.20;1.00;;;;;;5071803;28;20488;-72
2021/07/24 02:24:52;;;;;;;58.47;2.83;;;17.20;1.00;;;;;;5072286;28;20506;-71
2021/07/24 02:27:21;;;;;;;60.07;4.03;;;17.20;1.00;;;;;;5072075;28;20457;-71
2021/07/24 02:29:47;;;;;;;58.90;3.10;;;17.20;1.00;;;;;;5071875;28;20969;-71
2021/07/24 02:32:16;;;;;;;59.50;3.67;;;17.20;1.00;;;;;;5071696;28;20441;-72
2021/07/24 02:34:43;;;;;;;59.17;3.87;;;17.20;1.00;;;;;;5071458;28;20482;-72
2021/07/24 02:37:10;;;;;;;58.70;3.10;;;17.10;1.00;;;;;;5072152;28;20453;-71
2021/07/24 02:39:37;;;;;;;58.47;2.70;;;17.10;1.00;;;;;;5072205;28;20458;-72
2021/07/24 02:42:04;;;;;;;59.67;3.40;;;17.10;1.00;;;;;;5071933;28;21040;-72
2021/07/24 02:44:32;;;;;;;58.67;2.70;;;17.10;1.00;;;;;;5069511;28;20501;-71
2021/07/24 02:46:59;;;;;;;59.20;3.00;;;17.10;1.00;;;;;;5052029;28;20542;-71
2021/07/24 02:49:26;;;;;;;60.30;3.90;;;17.10;1.00;;;;;;5051778;28;20529;-71
2021/07/24 02:51:53;;;;;;;58.90;3.17;;;17.10;1.00;;;;;;5051559;28;20507;-72
2021/07/24 02:54:19;;;;;;;59.27;3.97;;;17.10;1.00;;;;;;5051621;28;20455;-72
2021/07/24 02:56:46;;;;;;;59.87;3.23;;;17.10;1.00;;;;;;5051601;28;20489;-71
2021/07/24 02:59:13;;;;;;;61.40;4.53;;;17.10;1.00;;;;;;5051655;28;20537;-71
2021/07/24 03:01:41;;;;;;;58.17;2.63;;;17.10;1.00;;;;;;5051055;28;21022;-72
2021/07/24 03:04:08;;;;;;;58.80;3.00;;;17.10;1.00;;;;;;5051476;28;20548;-72
2021/07/24 03:06:35;;;;;;;58.70;3.00;;;17.10;1.00;;;;;;5051662;28;20908;-72
2021/07/24 03:09:03;;;;;;;58.37;3.00;;;17.10;1.00;;;;;;5051474;28;20534;-72
2021/07/24 03:11:30;;;;;;;59.77;2.97;;;17.10;1.00;;;;;;5051369;28;20451;-72
2021/07/24 03:13:57;;;;;;;58.90;3.10;;;17.10;1.00;;;;;;5050778;28;20446;-72
2021/07/24 03:16:24;;;;;;;58.80;2.70;;;17.10;1.00;;;;;;5050423;28;20474;-72
2021/07/24 03:18:52;;;;;;;59.40;4.13;;;17.10;1.00;;;;;;5051541;28;20452;-72
2021/07/24 03:21:19;;;;;;;60.87;3.57;;;17.10;1.00;;;;;;5051444;28;20827;-72
2021/07/24 03:23:46;;;;;;;59.20;3.30;;;17.10;1.00;;;;;;5051185;28;20505;-72
2021/07/24 03:26:13;;;;;;;58.90;3.03;;;17.10;1.00;;;;;;5051421;28;20906;-72
2021/07/24 03:28:40;;;;;;;58.20;2.77;;;17.10;1.00;;;;;;5051278;28;20529;-71
2021/07/24 03:31:07;;;;;;;59.10;3.77;;;17.10;1.00;;;;;;5051300;28;20887;-72
2021/07/24 03:33:34;;;;;;;58.60;2.73;;;17.00;1.00;;;;;;5051049;28;20978;-72
2021/07/24 03:36:02;;;;;;;59.93;3.97;;;17.00;1.00;;;;;;5051448;28;20548;-72
2021/07/24 03:38:29;;;;;;;58.70;3.00;;;17.00;1.00;;;;;;5051388;28;20452;-72
2021/07/24 03:40:56;;;;;;;59.93;4.03;;;17.00;1.00;;;;;;5051172;28;20454;-72
2021/07/24 03:43:23;;;;;;;59.00;3.03;;;17.00;1.00;;;;;;5050761;28;20572;-72
2021/07/24 03:45:50;;;;;;;58.17;2.70;;;17.00;1.00;;;;;;5051310;28;20921;-72
2021/07/24 03:48:16;;;;;;;58.77;3.20;;;17.10;1.00;;;;;;5051295;28;20478;-72
2021/07/24 03:50:43;;;;;;;60.40;4.43;;;17.10;1.00;;;;;;5051243;28;20880;-72
2021/07/24 03:53:12;;;;;;;59.13;4.33;;;17.20;1.00;;;;;;5054251;28;20529;-72
2021/07/24 03:55:39;;;;;;;59.93;3.90;;;17.20;1.00;;;;;;5054655;28;20633;-72
2021/07/24 03:58:05;;;;;;;58.07;3.37;;;17.30;1.00;;;;;;5054770;28;20456;-72
2021/07/24 04:00:38;;;;;;;58.50;2.80;;;17.30;1.00;;;;;;5054795;28;20446;-72
2021/07/24 04:03:05;;;;;;;58.80;3.20;;;17.30;1.00;;;;;;5054348;28;20509;-72
2021/07/24 04:05:39;;;;;;;58.50;3.10;;;17.40;1.00;;;;;;5054553;28;20469;-72
2021/07/24 04:08:07;;;;;;;59.60;3.03;;;17.40;1.00;;;;;;5054586;28;20872;-72
2021/07/24 04:10:37;;;;;;;58.67;3.33;;;17.40;1.00;;;;;;5054456;28;20940;-72
2021/07/24 04:13:04;;;;;;;58.77;3.40;;;17.50;1.00;;;;;;5054177;28;20449;-72
2021/07/24 04:15:32;;;;;;;58.17;2.97;;;17.50;1.00;;;;;;5054237;28;20566;-72
2021/07/24 04:17:59;;;;;;;59.20;4.47;;;17.50;1.00;;;;;;5054493;28;20446;-72
2021/07/24 04:20:26;;;;;;;59.50;3.83;;;17.60;1.00;;;;;;5054346;28;20497;-72
2021/07/24 04:22:53;;;;;;;58.40;3.07;;;17.60;1.00;;;;;;5053850;28;20489;-72
2021/07/24 04:25:20;;;;;;;58.30;3.27;;;17.60;1.00;;;;;;5053988;28;20551;-72
2021/07/24 04:27:48;;;;;;;59.47;3.20;;;17.70;1.00;;;;;;5054329;28;20563;-72
2021/07/24 04:30:15;;;;;;;58.90;3.20;;;17.70;1.00;;;;;;5054345;28;20538;-72
2021/07/24 04:32:42;;;;;;;59.93;3.97;;;17.70;1.00;;;;;;5053789;28;20970;-72
2021/07/24 04:35:09;;;;;;;58.37;2.60;;;17.60;1.00;;;;;;5053939;28;20471;-72
2021/07/24 04:37:36;;;;;;;58.70;3.67;;;17.70;1.00;;;;;;5053918;28;20456;-72
2021/07/24 04:40:04;;;;;;;59.63;3.77;;;17.70;1.00;;;;;;5054082;28;20538;-72
2021/07/24 04:42:32;;;;;;;59.17;3.33;;;17.70;1.00;;;;;;5053455;28;20483;-72
2021/07/24 04:45:01;;;;;;;59.80;3.70;;;17.80;1.00;;;;;;5053831;28;20566;-71
2021/07/24 04:47:27;;;;;;;59.27;3.47;;;17.80;1.00;;;;;;5053849;28;20502;-72
2021/07/24 04:49:55;;;;;;;59.43;4.63;;;17.90;1.00;;;;;;5053729;28;20474;-72
2021/07/24 04:52:23;;;;;;;58.20;2.90;;;18.00;1.00;;;;;;5053438;28;20534;-72
2021/07/24 04:54:50;;;;;;;58.33;3.00;;;18.00;1.00;;;;;;5053954;28;21083;-72
2021/07/24 04:57:19;;;;;;;59.87;4.80;;;18.00;1.00;;;;;;5053720;28;20450;-72
2021/07/24 04:59:47;;;;;;;58.50;3.00;;;18.00;1.00;;;;;;5053507;28;20451;-72
2021/07/24 05:02:16;;;;;;;58.93;3.83;;;18.00;1.00;;;;;;5053170;28;20448;-72
2021/07/24 05:04:44;;;;;;;59.00;3.10;;;18.00;1.00;;;;;;5052598;28;20467;-72
2021/07/24 05:07:12;;;;;;;59.10;3.10;;;18.00;1.00;;;;;;5053306;28;20452;-72
2021/07/24 05:09:39;;;;;;;58.23;2.73;;;18.00;1.00;;;;;;5053462;28;20448;-72
2021/07/24 05:12:07;;;;;;;58.77;3.03;;;18.00;1.00;;;;;;5052977;28;20451;-72
2021/07/24 05:14:34;;;;;;;58.97;3.17;;;18.00;1.00;;;;;;5053259;28;20816;-72
2021/07/24 05:17:09;;;;;;;59.00;2.93;;;18.00;1.00;;;;;;5053117;28;20453;-72
2021/07/24 05:19:39;;;;;;;58.80;3.33;;;18.10;1.00;;;;;;5053394;28;20478;-72
2021/07/24 05:22:06;;;;;;;59.93;3.47;;;18.10;1.00;;;;;;5053198;28;20453;-72
2021/07/24 05:24:33;;;;;;;59.77;3.60;;;18.10;1.00;;;;;;5052891;28;20488;-72
2021/07/24 05:27:00;;;;;;;59.20;3.20;;;18.10;1.00;;;;;;5053330;28;20530;-72
2021/07/24 05:29:26;;;;;;;58.70;2.80;;;18.20;1.00;;;;;;5053014;28;20534;-72
2021/07/24 05:31:53;;;;;;;58.70;3.47;;;18.20;1.00;;;;;;5052947;28;20654;-72
2021/07/24 05:34:20;;;;;;;58.47;3.00;;;18.30;1.00;;;;;;5053131;28;20531;-72
2021/07/24 05:36:49;;;;;;;58.87;2.97;;;18.40;1.00;;;;;;5052805;28;20450;-72
2021/07/24 05:39:16;;;;;;;58.70;2.90;;;18.50;1.00;;;;;;5053107;28;20455;-72
2021/07/24 05:41:42;;;;;;;58.90;2.87;;;18.60;1.00;;;;;;5052418;28;21050;-72
2021/07/24 05:44:11;;;;;;;58.17;2.97;;;18.80;1.00;;;;;;5052449;28;21074;-72
2021/07/24 05:46:38;;;;;;;58.57;2.83;;;18.90;1.00;;;;;;5052813;28;20936;-72
2021/07/24 05:49:05;;;;;;;58.30;2.93;;;19.00;1.00;;;;;;5052853;28;20447;-72
2021/07/24 05:51:32;;;;;;;60.10;3.27;;;19.10;1.00;;;;;;5052237;28;21040;-72
2021/07/24 05:54:00;;;;;;;59.10;2.80;;;19.20;1.00;;;;;;5052714;28;20444;-72
2021/07/24 05:56:27;;;;;;;58.97;3.53;;;19.30;1.00;;;;;;5052420;28;20499;-72
2021/07/24 05:58:54;;;;;;;58.90;3.10;;;19.40;1.00;;;;;;5052005;28;20472;-72
2021/07/24 06:01:21;;;;;;;58.07;2.87;;;19.60;1.00;;;;;;5052569;28;20984;-71
2021/07/24 06:03:48;;;;;;;58.10;3.13;;;19.80;1.00;;;;;;5052117;28;20578;-71
2021/07/24 06:06:15;;;;;;;59.80;3.37;;;19.90;1.00;;;;;;5052365;28;20476;-72
2021/07/24 06:08:42;;;;;;;58.57;3.47;;;20.00;1.00;;;;;;5052421;28;20539;-72
2021/07/24 06:11:10;;;;;;;59.27;3.53;;;20.10;1.00;;;;;;5051986;28;20472;-72
2021/07/24 06:13:37;;;;;;;57.97;2.53;;;20.10;1.00;;;;;;5052406;28;20451;-72
2021/07/24 06:16:04;;;;;;;59.20;3.00;;;20.10;1.00;;;;;;5051804;28;20984;-72
2021/07/24 06:18:31;;;;;;;58.70;3.10;;;20.10;1.00;;;;;;5052465;28;20534;-72
2021/07/24 06:20:58;;;;;;;58.80;3.43;;;20.10;1.00;;;;;;5052038;28;20535;-72
2021/07/24 06:23:24;;;;;;;58.87;3.27;;;20.10;1.00;;;;;;5051679;28;21037;-71
2021/07/24 06:25:51;;;;;;;58.57;2.90;;;20.10;1.00;;;;;;5051786;28;20476;-72
2021/07/24 06:28:21;;;;;;;58.40;2.70;;;20.00;1.00;;;;;;5052150;28;20555;-72
2021/07/24 06:30:48;;;;;;;58.70;3.27;;;20.00;1.00;;;;;;5052053;28;20842;-72
2021/07/24 06:33:15;;;;;;;58.90;3.53;;;20.00;1.00;;;;;;5051751;28;21008;-72
2021/07/24 06:35:41;;;;;;;58.43;3.20;;;20.10;1.00;;;;;;5051936;28;20499;-72
2021/07/24 06:38:09;;;;;;;57.87;2.70;;;20.10;1.00;;;;;;5051849;28;20451;-72
2021/07/24 06:40:36;;;;;;;58.87;3.13;;;20.10;1.00;;;;;;5051647;28;20452;-71
2021/07/24 06:43:03;;;;;;;61.47;4.37;;;20.10;1.00;;;;;;5051874;28;20452;-72
2021/07/24 06:45:32;;;;;;;59.10;3.57;;;20.10;1.00;;;;;;5051862;28;20464;-72
2021/07/24 06:47:58;;;;;;;60.40;5.37;;;20.00;1.00;;;;;;5051805;28;20460;-72
2021/07/24 06:50:25;;;;;;;59.10;3.80;;;19.80;1.00;;;;;;5051822;28;20531;-71
2021/07/24 06:52:52;;;;;;;58.57;2.83;;;19.50;1.00;;;;;;5051602;28;20448;-71
2021/07/24 06:55:19;;;;;;;58.80;3.20;;;19.30;1.00;;;;;;5051288;28;20499;-71
2021/07/24 06:57:46;;;;;;;59.27;3.37;;;19.20;1.00;;;;;;5051417;28;20483;-71
2021/07/24 07:00:14;;;;;;;59.10;3.77;;;19.20;1.00;;;;;;5051864;28;20451;-71
2021/07/24 07:02:42;;;;;;;59.57;3.57;;;19.20;1.00;;;;;;5051341;28;20462;-71
2021/07/24 07:05:09;;;;;;;58.90;3.20;;;19.30;1.00;;;;;;5051938;28;20921;-71
2021/07/24 07:07:36;;;;;;;58.17;3.20;;;19.40;1.00;;;;;;5051389;28;20536;-71
2021/07/24 07:10:04;;;;;;;60.50;3.40;;;19.60;1.00;;;;;;5051593;28;20976;-71
2021/07/24 07:12:31;;;;;;;58.13;3.03;;;19.80;1.00;;;;;;5051596;28;20552;-71
2021/07/24 07:14:59;;;;;;;58.70;3.73;;;20.00;1.00;;;;;;5051572;28;20460;-72
2021/07/24 07:17:26;;;;;;;58.20;2.40;;;20.10;1.00;;;;;;5051578;28;20867;-71
2021/07/24 07:19:54;;;;;;;58.13;2.93;;;20.20;1.00;;;;;;5051738;28;20484;-71
2021/07/24 07:22:21;;;;;;;58.43;2.87;;;20.30;1.00;;;;;;5051140;28;20456;-71
2021/07/24 07:24:48;;;;;;;58.70;3.57;;;20.30;1.00;;;;;;5051501;28;20684;-71
2021/07/24 07:27:15;;;;;;;59.57;3.90;;;20.40;1.00;;;;;;5053855;28;20870;-71
2021/07/24 07:29:43;;;;;;;59.00;3.50;;;20.40;1.00;;;;;;5055908;28;20536;-71
2021/07/24 07:32:09;;;;;;;59.00;4.03;;;20.40;1.00;;;;;;5054909;28;20450;-71
2021/07/24 07:34:36;;;;;;;58.20;3.37;;;20.40;1.00;;;;;;5054382;28;20545;-71
2021/07/24 07:37:05;;;;;;;58.67;3.60;;;20.30;1.00;;;;;;5055141;28;20484;-71
2021/07/24 07:39:31;;;;;;;58.80;3.20;;;20.20;1.00;;;;;;5054955;28;20446;-71
2021/07/24 07:41:58;;;;;;;58.60;3.00;;;20.20;1.00;;;;;;5054928;28;20454;-71
2021/07/24 07:44:26;;;;;;;57.97;3.00;;;20.10;1.00;;;;;;5055076;28;20511;-71
2021/07/24 07:46:53;;;;;;;59.00;3.30;;;20.10;1.00;;;;;;5055056;28;20454;-71
2021/07/24 07:49:20;;;;;;;58.57;3.40;;;20.20;1.00;;;;;;5054942;28;20455;-71
2021/07/24 07:51:47;;;;;;;58.67;3.10;;;20.30;1.00;;;;;;5054904;28;20549;-71
2021/07/24 07:54:15;;;;;;;59.10;3.10;;;20.30;1.00;;;;;;5055202;28;20525;-71
2021/07/24 07:56:42;;;;;;;59.00;3.43;;;20.40;1.00;;;;;;5055056;28;20453;-71
2021/07/24 07:59:09;;;;;;;58.80;3.67;;;20.40;1.00;;;;;;5054944;28;20740;-71
2021/07/24 08:01:35;;;;;;;59.57;3.33;;;20.40;1.00;;;;;;5054569;28;20492;-71
2021/07/24 08:04:02;;;;;;;60.13;3.33;;;20.40;1.00;;;;;;5054539;28;20496;-71
2021/07/24 08:06:29;;;;;;;58.33;2.90;;;20.40;1.00;;;;;;5054647;28;20977;-71
2021/07/24 08:08:56;;;;;;;59.37;3.43;;;20.40;1.00;;;;;;5054941;28;20445;-71
2021/07/24 08:11:27;;;;;;;58.57;3.47;;;20.30;1.00;;;;;;5054533;28;20459;-72
2021/07/24 08:13:54;;;;;;;58.60;3.17;;;20.30;1.00;;;;;;5054520;28;21020;-71
2021/07/24 08:16:22;;;;;;;58.37;3.00;;;20.30;1.00;;;;;;5054340;28;20470;-71
2021/07/24 08:18:48;;;;;;;59.63;3.43;;;20.30;1.00;;;;;;5054683;28;20557;-71
2021/07/24 08:21:16;;;;;;;58.80;3.43;;;20.20;1.00;;;;;;5054517;28;21127;-71
2021/07/24 08:23:42;;;;;;;58.83;3.53;;;20.20;1.00;;;;;;5054130;28;21020;-71
2021/07/24 08:26:09;;;;;;;58.30;2.90;;;20.10;1.00;;;;;;5054332;28;20502;-71
2021/07/24 08:28:37;;;;;;;59.57;4.00;;;20.10;1.00;;;;;;5054287;28;20456;-71
2021/07/24 08:31:04;;;;;;;58.90;3.53;;;20.20;1.00;;;;;;5054006;28;20457;-71
2021/07/24 08:33:31;;;;;;;58.50;2.70;;;20.10;1.00;;;;;;5054151;28;20541;-71
2021/07/24 08:36:00;;;;;;;58.80;3.73;;;20.10;1.00;;;;;;5054257;28;20473;-70
2021/07/24 08:38:27;;;;;;;58.80;4.07;;;20.20;1.00;;;;;;5054099;28;20545;-71
2021/07/24 08:40:54;;;;;;;58.97;2.97;;;20.20;1.00;;;;;;5053885;28;20456;-71
2021/07/24 08:43:21;;;;;;;58.43;3.00;;;20.30;1.00;;;;;;5053611;28;20452;-69
2021/07/24 08:45:50;;;;;;;58.50;3.00;;;20.40;1.00;;;;;;5053990;28;20599;-69
2021/07/24 08:48:17;;;;;;;58.70;3.57;;;20.50;1.00;;;;;;5054108;28;20597;-69
2021/07/24 08:50:46;;;;;;;59.00;3.90;;;20.70;1.00;;;;;;5054061;28;20494;-69
2021/07/24 08:53:17;;;;;;;58.33;3.27;;;20.90;1.00;;;;;;5053349;28;20490;-69
2021/07/24 08:55:44;;;;;;;59.27;3.80;;;21.20;1.00;;;;;;5053822;28;20466;-69
2021/07/24 08:58:14;;;;;;;59.97;5.97;;;21.50;1.00;;;;;;5053613;28;20459;-71
2021/07/24 09:00:44;;;;;;;62.20;4.43;;;21.80;1.00;;;;;;5053869;28;20448;-70
2021/07/24 09:03:19;;;;;;;58.97;3.13;;;22.20;1.00;;;;;;5053169;28;20464;-70
2021/07/24 09:05:50;;;;;;;58.13;2.83;;;22.50;1.00;;;;;;5053523;28;20483;-70
2021/07/24 09:08:18;;;;;;;59.30;2.93;;;22.80;1.00;;;;;;5053437;28;20963;-70
2021/07/24 09:10:47;;;;;;;59.70;4.60;;;23.00;1.00;;;;;;5053392;28;20818;-71
2021/07/24 09:13:16;;;;;;;59.20;3.57;;;23.10;1.00;;;;;;5053084;28;21008;-70
2021/07/24 09:15:43;;;;;;;62.03;3.73;;;23.10;1.00;;;;;;5053535;28;20832;-71
2021/07/24 09:18:10;;;;;;;58.37;2.93;;;23.10;1.00;;;;;;5053258;28;20449;-71
2021/07/24 09:20:41;;;;;;;59.47;3.20;;;23.20;1.00;;;;;;5053174;28;20444;-72
2021/07/24 09:23:28;;;;;;;59.60;4.10;;;23.30;1.00;;;;;;5052842;28;20491;-71
2021/07/24 09:25:55;;;;;;;59.10;3.20;;;23.40;1.00;;;;;;5052922;28;21022;-71
2021/07/24 09:28:22;;;;;;;58.70;3.40;;;23.40;1.00;;;;;;5053202;28;20444;-72
2021/07/24 09:30:50;;;;;;;58.90;3.67;;;23.40;1.00;;;;;;5053644;28;20452;-71
2021/07/24 09:33:19;;;;;;;59.67;3.87;;;23.40;1.00;;;;;;5052760;28;20481;-72
2021/07/24 09:35:48;;;;;;;59.07;3.37;;;23.60;1.00;;;;;;5053014;28;20507;-71
2021/07/24 09:38:28;;;;;;;60.50;4.40;;;23.70;1.00;;;;;;5060324;28;20474;-73
2021/07/24 09:40:56;;;;;;;58.70;3.00;;;23.80;1.00;;;;;;5072618;28;20535;-72
2021/07/24 09:43:35;;;;;;;58.77;3.37;;;23.90;1.00;;;;;;5068708;28;20473;-71
2021/07/24 09:46:12;;;;;;;58.57;3.07;;;24.10;1.00;;;;;;5064343;28;20488;-72
2021/07/24 09:48:40;;;;;;;59.83;3.40;;;24.30;1.00;;;;;;5072470;28;20551;-73
2021/07/24 09:51:09;;;;;;;59.00;3.63;;;24.50;1.00;;;;;;5070768;28;20502;-72
2021/07/24 09:53:40;;;;;;;61.77;3.80;;;24.70;1.00;;;;;;5071712;28;20457;-72
2021/07/24 09:56:11;;;;;;;59.83;3.47;;;24.90;1.00;;;;;;5072335;28;21002;-72
2021/07/24 09:58:39;;;;;;;65.47;6.10;;;25.20;1.00;;;;;;5072324;28;20495;-73
2021/07/24 10:01:07;;;;;;;59.77;3.87;;;25.50;1.00;;;;;;5072416;28;20450;-72
2021/07/24 10:03:36;;;;;;;59.27;3.27;;;25.60;1.00;;;;;;5072009;28;20463;-73
2021/07/24 10:06:12;;;;;;;59.47;3.10;;;25.80;1.00;;;;;;5072209;28;20532;-72
2021/07/24 10:08:40;;;;;;;58.60;2.90;;;26.00;1.00;;;;;;5072313;28;20450;-72
2021/07/24 10:11:07;;;;;;;59.27;3.90;;;26.10;1.00;;;;;;5071981;28;20440;-72
2021/07/24 10:13:35;;;;;;;58.60;3.77;;;26.20;1.00;;;;;;5071896;28;20898;-72
2021/07/24 10:16:02;;;;;;;58.10;2.40;;;26.20;1.00;;;;;;5072209;28;20472;-73
2021/07/24 10:18:29;;;;;;;58.37;2.67;;;26.30;1.00;;;;;;5072229;28;20526;-73
2021/07/24 10:20:56;;;;;;;59.27;3.20;;;26.40;1.00;;;;;;5071794;28;20486;-73
2021/07/24 10:23:24;;;;;;;60.37;4.60;;;26.60;1.00;;;;;;5070538;28;20590;-73
2021/07/24 10:26:09;;;;;;;59.43;4.50;;;26.70;1.00;;;;;;5053370;28;21006;-73
2021/07/24 10:28:41;;;;;;;58.97;3.87;;;27.10;1.00;;;;;;5052008;28;21012;-73
2021/07/24 10:31:12;;;;;;;59.10;3.60;;;27.30;1.00;;;;;;5051848;28;20478;-73
2021/07/24 10:33:40;;;;;;;59.97;4.30;;;27.70;1.00;;;;;;5051654;28;20456;-73
2021/07/24 10:36:17;;;;;;;59.00;4.27;;;28.70;1.00;;;;;;5051520;28;20464;-73
2021/07/24 10:39:03;;;;;;;61.60;3.77;;;28.70;1.00;;;;;;5051846;28;20886;-73
2021/07/24 10:41:40;;;;;;;58.87;3.60;;;28.50;1.00;;;;;;5051681;28;20897;-73
2021/07/24 10:44:08;;;;;;;59.33;3.10;;;28.30;1.00;;;;;;5051670;28;20484;-73
2021/07/24 10:47:09;;;;;;;58.77;3.20;;;28.20;1.00;;;;;;5051685;28;20539;-73
2021/07/24 10:49:55;;;;;;;58.90;3.53;;;28.20;1.00;;;;;;5051879;28;20801;-73
2021/07/24 10:52:22;;;;;;;59.70;3.67;;;28.60;1.00;;;;;;5051342;28;20455;-73
2021/07/24 10:55:17;;;;;;;59.50;3.77;;;29.10;1.00;;;;;;5050273;28;20468;-73
2021/07/24 10:58:04;;;;;;;58.67;3.03;;;29.70;1.00;;;;;;5037895;28;20875;-73
2021/07/24 11:00:32;;;;;;;59.40;3.17;;;29.50;1.00;;;;;;5051601;28;20952;-73
2021/07/24 11:02:59;;;;;;;60.23;3.30;;;29.10;1.00;;;;;;5054525;28;20548;-73
2021/07/24 11:05:28;;;;;;;60.20;3.57;;;29.10;1.00;;;;;;5055534;28;20498;-72
2021/07/24 11:07:55;;;;;;;58.23;2.90;;;29.40;1.00;;;;;;5055675;28;20959;-73
2021/07/24 11:10:23;;;;;;;58.87;3.20;;;29.40;1.00;;;;;;5055543;28;20845;-73
2021/07/24 11:12:51;;;;;;;58.50;2.83;;;29.50;1.00;;;;;;5055456;28;20449;-73
2021/07/24 11:15:19;;;;;;;59.73;2.70;;;29.40;1.00;;;;;;5055454;28;20473;-73
2021/07/24 11:18:06;;;;;;;58.30;3.13;;;29.20;1.00;;;;;;5055567;28;20946;-73
2021/07/24 11:20:47;;;;;;;58.77;2.73;;;29.30;1.00;;;;;;5055261;28;20486;-73
2021/07/24 11:23:14;;;;;;;59.50;4.20;;;29.30;1.00;;;;;;5055273;28;20449;-74
2021/07/24 11:25:46;;;;;;;58.27;2.57;;;29.90;1.00;;;;;;5055821;28;20484;-73
2021/07/24 11:28:19;;;;;;;57.87;2.50;;;29.90;1.00;;;;;;5075679;28;20438;-73
2021/07/24 11:30:45;;;;;;;58.70;3.27;;;30.00;1.00;;;;;;5075244;28;21048;-73
2021/07/24 11:33:19;;;;;;;59.50;3.33;;;30.90;1.00;;;;;;5074870;28;20490;-73
2021/07/24 11:35:51;;;;;;;58.00;2.97;;;31.40;1.00;;;;;;5075183;28;20474;-74
2021/07/24 11:38:25;;;;;;;58.67;3.27;;;31.60;1.00;;;;;;5075216;28;20529;-74
2021/07/24 11:41:01;;;;;;;58.10;3.20;;;31.00;1.00;;;;;;5075201;28;20441;-73
2021/07/24 11:43:29;;;;;;;59.27;2.80;;;30.20;1.00;;;;;;5074990;28;20502;-73
2021/07/24 11:46:01;;;;;;;59.00;3.47;;;29.60;1.00;;;;;;5074819;28;20535;-73
2021/07/24 11:48:28;;;;;;;57.90;2.60;;;29.10;1.00;;;;;;5074771;28;20451;-73
2021/07/24 11:51:02;;;;;;;59.07;3.67;;;28.70;1.00;;;;;;5074771;28;20451;-73
2021/07/24 11:53:29;;;;;;;59.40;3.23;;;28.20;1.00;;;;;;5074856;28;20443;-73
2021/07/24 11:55:56;;;;;;;59.13;3.87;;;27.70;1.00;;;;;;5073172;28;20463;-73
2021/07/24 11:58:24;;;;;;;59.17;3.60;;;27.50;1.00;;;;;;5075032;28;20534;-73
2021/07/24 12:00:53;;;;;;;60.37;3.90;;;27.30;1.00;;;;;;5074878;28;20490;-73
2021/07/24 12:03:21;;;;;;;58.37;3.40;;;27.20;1.00;;;;;;5074205;28;20466;-73
2021/07/24 12:05:49;;;;;;;60.17;4.20;;;27.20;1.00;;;;;;5074570;28;20578;-74
2021/07/24 12:08:18;;;;;;;66.40;3.77;;;27.40;1.00;;;;;;5074697;28;20538;-73
2021/07/24 12:10:48;;;;;;;58.33;2.67;;;27.80;1.00;;;;;;5074652;28;20542;-73
2021/07/24 12:13:21;;;;;;;58.30;2.87;;;28.40;1.00;;;;;;5074104;28;20939;-73
2021/07/24 12:16:00;;;;;;;58.97;2.73;;;28.80;1.00;;;;;;5074740;28;20517;-73
2021/07/24 12:18:28;;;;;;;60.20;3.70;;;29.20;1.00;;;;;;5074646;28;20455;-74
2021/07/24 12:21:10;;;;;;;57.40;2.10;;;29.60;1.00;;;;;;5074141;28;20458;-71
2021/07/24 12:23:42;;;;;;;57.60;2.30;;;30.90;1.00;;;;;;5054358;28;20930;-72
2021/07/24 12:26:12;;;;;;;57.97;2.90;;;32.50;1.00;;;;;;5054030;28;20487;-74
2021/07/24 12:28:39;;;;;;;58.47;2.60;;;33.90;1.00;;;;;;5054045;28;20456;-73
2021/07/24 12:31:28;;;;;;;58.50;2.53;;;34.60;1.00;;;;;;5053193;28;20458;-73
2021/07/24 12:33:57;;;;;;;57.57;2.67;;;35.40;1.00;;;;;;5066774;28;20452;-74
2021/07/24 12:36:24;;;;;;;58.40;2.87;;;36.00;1.00;;;;;;5074076;28;20467;-74
2021/07/24 12:38:52;;;;;;;58.57;2.90;;;35.70;1.00;;;;;;5073775;28;20936;-74
2021/07/24 12:41:29;;;;;;;59.00;2.80;;;35.00;1.00;;;;;;5073747;28;20490;-74
2021/07/24 12:44:07;;;;;;;57.43;2.57;;;34.60;1.00;;;;;;5074019;28;20457;-74
2021/07/24 12:46:36;;;;;;;58.23;2.37;;;35.00;1.00;;;;;;5073825;28;20482;-74
2021/07/24 12:49:03;;;;;;;57.50;2.27;;;35.10;1.00;;;;;;5073801;28;20489;-74
2021/07/24 12:51:36;;;;;;;57.60;2.70;;;34.90;1.00;;;;;;5073618;28;20534;-72
2021/07/24 12:54:12;;;;;;;58.90;3.10;;;35.00;1.00;;;;;;5073879;28;20504;-74
2021/07/24 12:56:42;;;;;;;57.70;2.87;;;35.20;1.00;;;;;;5073602;28;20449;-72
2021/07/24 12:59:09;;;;;;;59.00;4.70;;;35.20;1.00;;;;;;5073769;28;20451;-73
2021/07/24 13:01:44;;;;;;;57.43;2.60;;;35.00;1.00;;;;;;5068187;28;20987;-71